sensor_id;sensor_type;location;lat;lon;timestamp;temperature;humidity
9668;DHT22;4872;48.316;10.650;2023-04-03T05:09:55;3.50;93.80
9668;DHT22;4872;48.316;10.650;2023-04-03T05:12:22;3.50;93.60
9668;DHT22;4872;48.316;10.650;2023-04-03T05:14:48;3.50;93.60
9668;DHT22;4872;48.316;10.650;2023-04-03T05:17:15;3.40;93.40
9668;DHT22;4872;48.316;10.650;2023-04-03T05:19:42;3.40;93.50
9668;DHT22;4872;48.316;10.650;2023-04-03T05:22:09;3.40;93.60
9668;DHT22;4872;48.316;10.650;2023-04-03T05:24:35;3.40;93.70
9668;DHT22;4872;48.316;10.650;2023-04-03T05:27:04;3.40;93.50
9668;DHT22;4872;48.316;10.650;2023-04-03T05:29:30;3.60;93.60
9668;DHT22;4872;48.316;10.650;2023-04-03T05:31:57;3.30;93.60
9668;DHT22;4872;48.316;10.650;2023-04-03T05:34:24;3.30;93.70
9668;DHT22;4872;48.316;10.650;2023-04-03T05:36:50;3.70;93.90
9668;DHT22;4872;48.316;10.650;2023-04-03T05:39:17;3.40;94.00
9668;DHT22;4872;48.316;10.650;2023-04-03T05:41:44;3.40;93.80
9668;DHT22;4872;48.316;10.650;2023-04-03T05:44:12;3.40;94.10
9668;DHT22;4872;48.316;10.650;2023-04-03T05:46:39;3.50;94.10
9668;DHT22;4872;48.316;10.650;2023-04-03T05:49:06;3.50;94.20
9668;DHT22;4872;48.316;10.650;2023-04-03T05:51:35;3.50;93.90
9668;DHT22;4872;48.316;10.650;2023-04-03T05:54:06;3.70;93.80
9668;DHT22;4872;48.316;10.650;2023-04-03T05:56:35;3.60;93.90
9668;DHT22;4872;48.316;10.650;2023-04-03T05:59:02;3.70;93.90
9668;DHT22;4872;48.316;10.650;2023-04-03T06:01:30;3.70;93.80
9668;DHT22;4872;48.316;10.650;2023-04-03T06:03:57;3.70;93.80
9668;DHT22;4872;48.316;10.650;2023-04-03T06:06:24;3.70;93.90
9668;DHT22;4872;48.316;10.650;2023-04-03T06:08:51;3.70;93.60
9668;DHT22;4872;48.316;10.650;2023-04-03T06:11:18;3.70;93.80
9668;DHT22;4872;48.316;10.650;2023-04-03T06:13:46;3.80;93.90
9668;DHT22;4872;48.316;10.650;2023-04-03T06:16:14;3.80;93.60
9668;DHT22;4872;48.316;10.650;2023-04-03T06:18:42;3.70;93.60
9668;DHT22;4872;48.316;10.650;2023-04-03T06:21:09;3.70;93.80
9668;DHT22;4872;48.316;10.650;2023-04-03T06:23:36;3.80;94.10
9668;DHT22;4872;48.316;10.650;2023-04-03T06:26:03;3.80;93.70
9668;DHT22;4872;48.316;10.650;2023-04-03T06:28:30;3.90;93.90
9668;DHT22;4872;48.316;10.650;2023-04-03T06:30:57;4.60;94.20
9668;DHT22;4872;48.316;10.650;2023-04-03T06:33:24;4.00;93.80
9668;DHT22;4872;48.316;10.650;2023-04-03T06:35:57;4.80;94.00
9668;DHT22;4872;48.316;10.650;2023-04-03T06:38:24;4.20;93.60
9668;DHT22;4872;48.316;10.650;2023-04-03T06:40:51;4.20;93.70
9668;DHT22;4872;48.316;10.650;2023-04-03T06:43:18;5.00;94.00
9668;DHT22;4872;48.316;10.650;2023-04-03T06:45:46;4.10;93.60
9668;DHT22;4872;48.316;10.650;2023-04-03T06:48:13;4.00;93.40
9668;DHT22;4872;48.316;10.650;2023-04-03T06:50:40;4.20;93.50
9668;DHT22;4872;48.316;10.650;2023-04-03T06:53:08;4.10;93.60
9668;DHT22;4872;48.316;10.650;2023-04-03T06:55:35;4.50;93.70
9668;DHT22;4872;48.316;10.650;2023-04-03T06:58:02;4.20;93.50
9668;DHT22;4872;48.316;10.650;2023-04-03T07:00:30;4.20;93.70
9668;DHT22;4872;48.316;10.650;2023-04-03T07:02:56;4.50;93.80
9668;DHT22;4872;48.316;10.650;2023-04-03T07:05:24;4.20;93.70
9668;DHT22;4872;48.316;10.650;2023-04-03T07:07:51;4.10;93.90
9668;DHT22;4872;48.316;10.650;2023-04-03T07:10:19;4.20;93.90
9668;DHT22;4872;48.316;10.650;2023-04-03T07:12:46;4.20;94.00
9668;DHT22;4872;48.316;10.650;2023-04-03T07:15:13;4.20;93.80
9668;DHT22;4872;48.316;10.650;2023-04-03T07:17:40;4.30;94.00
9668;DHT22;4872;48.316;10.650;2023-04-03T07:20:08;4.30;93.70
9668;DHT22;4872;48.316;10.650;2023-04-03T07:22:35;4.40;93.50
9668;DHT22;4872;48.316;10.650;2023-04-03T07:25:01;4.40;93.50
9668;DHT22;4872;48.316;10.650;2023-04-03T07:27:30;4.60;93.50
9668;DHT22;4872;48.316;10.650;2023-04-03T07:29:59;4.70;93.30
9668;DHT22;4872;48.316;10.650;2023-04-03T07:32:29;4.50;93.50
9668;DHT22;4872;48.316;10.650;2023-04-03T07:34:56;5.10;93.90
9668;DHT22;4872;48.316;10.650;2023-04-03T07:37:26;5.30;94.20
9668;DHT22;4872;48.316;10.650;2023-04-03T07:39:53;4.90;93.80
9668;DHT22;4872;48.316;10.650;2023-04-03T07:42:22;4.70;93.80
9668;DHT22;4872;48.316;10.650;2023-04-03T07:44:55;4.80;93.30
9668;DHT22;4872;48.316;10.650;2023-04-03T07:47:25;4.80;93.20
9668;DHT22;4872;48.316;10.650;2023-04-03T07:49:52;4.90;93.10
9668;DHT22;4872;48.316;10.650;2023-04-03T07:52:22;4.90;93.00
9668;DHT22;4872;48.316;10.650;2023-04-03T07:54:49;5.00;93.10
9668;DHT22;4872;48.316;10.650;2023-04-03T07:57:16;5.70;93.20
9668;DHT22;4872;48.316;10.650;2023-04-03T07:59:43;5.20;92.90
9668;DHT22;4872;48.316;10.650;2023-04-03T08:02:12;5.20;92.60
9668;DHT22;4872;48.316;10.650;2023-04-03T08:04:45;5.50;92.70
9668;DHT22;4872;48.316;10.650;2023-04-03T08:07:13;5.10;92.70
9668;DHT22;4872;48.316;10.650;2023-04-03T08:09:40;5.40;92.50
9668;DHT22;4872;48.316;10.650;2023-04-03T08:12:07;5.40;92.90
9668;DHT22;4872;48.316;10.650;2023-04-03T08:14:36;5.70;92.80
9668;DHT22;4872;48.316;10.650;2023-04-03T08:17:03;5.50;92.60
9668;DHT22;4872;48.316;10.650;2023-04-03T08:19:32;5.60;92.40
9668;DHT22;4872;48.316;10.650;2023-04-03T08:21:58;5.60;92.20
9668;DHT22;4872;48.316;10.650;2023-04-03T08:24:28;5.60;92.30
9668;DHT22;4872;48.316;10.650;2023-04-03T08:26:55;5.70;92.10
9668;DHT22;4872;48.316;10.650;2023-04-03T08:29:21;5.90;92.00
9668;DHT22;4872;48.316;10.650;2023-04-03T08:31:55;5.90;91.60
9668;DHT22;4872;48.316;10.650;2023-04-03T08:34:28;5.90;91.70
9668;DHT22;4872;48.316;10.650;2023-04-03T08:37:07;5.90;91.90
9668;DHT22;4872;48.316;10.650;2023-04-03T08:39:34;6.10;91.80
9668;DHT22;4872;48.316;10.650;2023-04-03T08:42:07;6.70;91.90
9668;DHT22;4872;48.316;10.650;2023-04-03T08:44:45;6.00;91.90
9668;DHT22;4872;48.316;10.650;2023-04-03T08:47:20;6.00;91.50
9668;DHT22;4872;48.316;10.650;2023-04-03T08:49:53;6.40;91.90
9668;DHT22;4872;48.316;10.650;2023-04-03T08:52:27;6.30;91.80
9668;DHT22;4872;48.316;10.650;2023-04-03T08:55:00;6.40;91.20
9668;DHT22;4872;48.316;10.650;2023-04-03T08:57:30;6.20;91.30
9668;DHT22;4872;48.316;10.650;2023-04-03T09:00:01;6.40;91.40
9668;DHT22;4872;48.316;10.650;2023-04-03T09:02:33;6.60;91.10
9668;DHT22;4872;48.316;10.650;2023-04-03T09:05:05;7.10;91.20
9668;DHT22;4872;48.316;10.650;2023-04-03T09:07:43;6.80;90.40
9668;DHT22;4872;48.316;10.650;2023-04-03T09:10:13;7.00;90.70
9668;DHT22;4872;48.316;10.650;2023-04-03T09:12:43;7.40;90.30
9668;DHT22;4872;48.316;10.650;2023-04-03T09:15:17;6.90;90.10
9668;DHT22;4872;48.316;10.650;2023-04-03T09:17:58;7.20;89.50
9668;DHT22;4872;48.316;10.650;2023-04-03T09:20:35;7.30;88.70
9668;DHT22;4872;48.316;10.650;2023-04-03T09:23:16;7.40;89.30
9668;DHT22;4872;48.316;10.650;2023-04-03T09:25:45;7.60;88.70
9668;DHT22;4872;48.316;10.650;2023-04-03T09:28:12;7.50;89.90
9668;DHT22;4872;48.316;10.650;2023-04-03T09:30:39;7.70;89.30
9668;DHT22;4872;48.316;10.650;2023-04-03T09:33:06;7.80;88.20
9668;DHT22;4872;48.316;10.650;2023-04-03T09:35:34;7.70;88.90
9668;DHT22;4872;48.316;10.650;2023-04-03T09:38:21;7.60;87.30
9668;DHT22;4872;48.316;10.650;2023-04-03T09:40:50;7.60;86.60
9668;DHT22;4872;48.316;10.650;2023-04-03T09:43:27;7.50;86.20
9668;DHT22;4872;48.316;10.650;2023-04-03T09:48:50;7.10;86.30
9668;DHT22;4872;48.316;10.650;2023-04-03T09:51:17;7.00;87.20
9668;DHT22;4872;48.316;10.650;2023-04-03T09:53:45;7.20;86.90
9668;DHT22;4872;48.316;10.650;2023-04-03T09:56:23;6.80;87.10
9668;DHT22;4872;48.316;10.650;2023-04-03T09:59:05;7.00;86.60
9668;DHT22;4872;48.316;10.650;2023-04-03T10:01:35;6.60;87.30
9668;DHT22;4872;48.316;10.650;2023-04-03T10:04:06;6.30;87.80
9668;DHT22;4872;48.316;10.650;2023-04-03T10:06:34;6.30;88.00
9668;DHT22;4872;48.316;10.650;2023-04-03T10:09:05;6.30;88.20
9668;DHT22;4872;48.316;10.650;2023-04-03T10:11:33;6.00;88.50
9668;DHT22;4872;48.316;10.650;2023-04-03T10:14:01;5.90;89.50
9668;DHT22;4872;48.316;10.650;2023-04-03T10:16:35;6.10;89.30
9668;DHT22;4872;48.316;10.650;2023-04-03T10:19:28;6.20;90.00
9668;DHT22;4872;48.316;10.650;2023-04-03T10:21:59;5.70;90.00
9668;DHT22;4872;48.316;10.650;2023-04-03T10:24:36;5.90;90.10
9668;DHT22;4872;48.316;10.650;2023-04-03T10:27:07;5.80;90.00
9668;DHT22;4872;48.316;10.650;2023-04-03T10:29:40;5.90;90.20
9668;DHT22;4872;48.316;10.650;2023-04-03T10:32:28;6.10;90.40
9668;DHT22;4872;48.316;10.650;2023-04-03T10:35:04;5.80;90.30
9668;DHT22;4872;48.316;10.650;2023-04-03T10:37:44;5.70;90.00
9668;DHT22;4872;48.316;10.650;2023-04-03T10:40:24;5.70;89.60
9668;DHT22;4872;48.316;10.650;2023-04-03T10:43:03;5.70;89.80
9668;DHT22;4872;48.316;10.650;2023-04-03T10:45:34;6.20;89.30
9668;DHT22;4872;48.316;10.650;2023-04-03T10:48:13;5.70;88.20
9668;DHT22;4872;48.316;10.650;2023-04-03T10:50:46;5.70;88.90
9668;DHT22;4872;48.316;10.650;2023-04-03T10:53:19;5.80;89.30
9668;DHT22;4872;48.316;10.650;2023-04-03T10:55:54;5.80;89.50
9668;DHT22;4872;48.316;10.650;2023-04-03T10:58:27;5.80;88.40
9668;DHT22;4872;48.316;10.650;2023-04-03T11:01:01;5.90;88.90
9668;DHT22;4872;48.316;10.650;2023-04-03T11:03:31;6.00;88.90
9668;DHT22;4872;48.316;10.650;2023-04-03T11:06:03;6.10;88.40
9668;DHT22;4872;48.316;10.650;2023-04-03T11:08:34;6.00;87.80
9668;DHT22;4872;48.316;10.650;2023-04-03T11:11:06;6.00;87.60
9668;DHT22;4872;48.316;10.650;2023-04-03T11:13:38;6.00;88.00
9668;DHT22;4872;48.316;10.650;2023-04-03T11:16:08;6.00;88.20
9668;DHT22;4872;48.316;10.650;2023-04-03T11:18:39;6.10;87.90
9668;DHT22;4872;48.316;10.650;2023-04-03T11:21:11;6.00;87.40
9668;DHT22;4872;48.316;10.650;2023-04-03T11:23:40;6.00;87.80
9668;DHT22;4872;48.316;10.650;2023-04-03T11:26:11;6.10;88.20
9668;DHT22;4872;48.316;10.650;2023-04-03T11:28:39;6.10;88.00
9668;DHT22;4872;48.316;10.650;2023-04-03T11:31:15;6.10;87.40
9668;DHT22;4872;48.316;10.650;2023-04-03T11:33:52;5.90;87.30
9668;DHT22;4872;48.316;10.650;2023-04-03T11:36:24;5.90;88.10
9668;DHT22;4872;48.316;10.650;2023-04-03T11:38:54;5.90;87.60
9668;DHT22;4872;48.316;10.650;2023-04-03T11:41:29;5.80;87.70
9668;DHT22;4872;48.316;10.650;2023-04-03T11:43:59;6.00;89.20
9668;DHT22;4872;48.316;10.650;2023-04-03T11:46:50;6.10;89.60
9668;DHT22;4872;48.316;10.650;2023-04-03T11:52:55;6.40;87.60
9668;DHT22;4872;48.316;10.650;2023-04-03T11:55:46;6.60;87.40
9668;DHT22;4872;48.316;10.650;2023-04-03T11:58:20;6.60;87.50
9668;DHT22;4872;48.316;10.650;2023-04-03T12:00:58;6.80;86.60
9668;DHT22;4872;48.316;10.650;2023-04-03T12:03:56;6.90;86.60
9668;DHT22;4872;48.316;10.650;2023-04-03T12:06:51;7.00;86.60
9668;DHT22;4872;48.316;10.650;2023-04-03T12:12:36;7.00;86.00
9668;DHT22;4872;48.316;10.650;2023-04-03T12:21:18;7.10;85.10
9668;DHT22;4872;48.316;10.650;2023-04-03T12:24:04;7.00;84.20
9668;DHT22;4872;48.316;10.650;2023-04-03T12:26:36;6.90;84.50
9668;DHT22;4872;48.316;10.650;2023-04-03T12:29:14;6.90;84.70
9668;DHT22;4872;48.316;10.650;2023-04-03T12:31:52;6.80;85.00
9668;DHT22;4872;48.316;10.650;2023-04-03T12:34:38;6.80;85.10
9668;DHT22;4872;48.316;10.650;2023-04-03T12:37:19;6.90;86.40
9668;DHT22;4872;48.316;10.650;2023-04-03T12:40:01;7.10;83.20
9668;DHT22;4872;48.316;10.650;2023-04-03T12:42:43;7.00;83.20
9668;DHT22;4872;48.316;10.650;2023-04-03T12:45:19;7.10;83.40
9668;DHT22;4872;48.316;10.650;2023-04-03T12:47:52;7.00;81.60
9668;DHT22;4872;48.316;10.650;2023-04-03T12:50:22;7.20;82.60
9668;DHT22;4872;48.316;10.650;2023-04-03T12:52:59;6.90;82.30
9668;DHT22;4872;48.316;10.650;2023-04-03T12:55:29;7.00;81.50
9668;DHT22;4872;48.316;10.650;2023-04-03T12:57:56;7.20;82.60
9668;DHT22;4872;48.316;10.650;2023-04-03T13:00:32;7.10;81.70
9668;DHT22;4872;48.316;10.650;2023-04-03T13:03:02;7.20;80.60
9668;DHT22;4872;48.316;10.650;2023-04-03T13:05:31;7.40;80.70
9668;DHT22;4872;48.316;10.650;2023-04-03T13:08:00;7.30;79.70
9668;DHT22;4872;48.316;10.650;2023-04-03T13:10:29;7.60;79.40
9668;DHT22;4872;48.316;10.650;2023-04-03T13:13:06;7.40;80.70
9668;DHT22;4872;48.316;10.650;2023-04-03T13:15:44;7.50;80.00
9668;DHT22;4872;48.316;10.650;2023-04-03T13:18:28;7.80;79.60
9668;DHT22;4872;48.316;10.650;2023-04-03T13:20:59;7.70;77.60
9668;DHT22;4872;48.316;10.650;2023-04-03T13:23:27;7.80;78.80
9668;DHT22;4872;48.316;10.650;2023-04-03T13:25:55;7.90;77.90
9668;DHT22;4872;48.316;10.650;2023-04-03T13:28:26;8.30;76.40
9668;DHT22;4872;48.316;10.650;2023-04-03T13:31:01;8.20;74.80
9668;DHT22;4872;48.316;10.650;2023-04-03T13:33:32;8.40;73.60
9668;DHT22;4872;48.316;10.650;2023-04-03T13:36:03;8.40;73.60
9668;DHT22;4872;48.316;10.650;2023-04-03T13:38:32;8.60;71.20
9668;DHT22;4872;48.316;10.650;2023-04-03T13:41:04;8.50;74.30
9668;DHT22;4872;48.316;10.650;2023-04-03T13:43:34;8.60;74.80
9668;DHT22;4872;48.316;10.650;2023-04-03T13:46:20;8.70;74.70
9668;DHT22;4872;48.316;10.650;2023-04-03T13:48:52;8.60;72.50
9668;DHT22;4872;48.316;10.650;2023-04-03T13:51:22;8.40;73.00
9668;DHT22;4872;48.316;10.650;2023-04-03T13:53:52;8.20;70.70
9668;DHT22;4872;48.316;10.650;2023-04-03T13:56:30;7.80;70.60
9668;DHT22;4872;48.316;10.650;2023-04-03T13:59:05;7.80;71.00
9668;DHT22;4872;48.316;10.650;2023-04-03T14:01:42;7.70;71.60
9668;DHT22;4872;48.316;10.650;2023-04-03T14:04:17;7.50;72.90
9668;DHT22;4872;48.316;10.650;2023-04-03T14:06:44;7.40;74.00
9668;DHT22;4872;48.316;10.650;2023-04-03T14:09:14;7.10;73.20
9668;DHT22;4872;48.316;10.650;2023-04-03T14:11:41;6.80;74.00
9668;DHT22;4872;48.316;10.650;2023-04-03T14:14:14;7.00;74.70
9668;DHT22;4872;48.316;10.650;2023-04-03T14:16:44;6.50;74.70
9668;DHT22;4872;48.316;10.650;2023-04-03T14:19:19;6.80;75.10
9668;DHT22;4872;48.316;10.650;2023-04-03T14:21:46;6.60;74.70
9668;DHT22;4872;48.316;10.650;2023-04-03T14:24:13;6.50;73.40
9668;DHT22;4872;48.316;10.650;2023-04-03T14:26:42;6.50;74.30
9668;DHT22;4872;48.316;10.650;2023-04-03T14:29:11;7.30;73.30
9668;DHT22;4872;48.316;10.650;2023-04-03T14:31:45;7.10;72.30
9668;DHT22;4872;48.316;10.650;2023-04-03T14:34:13;7.00;72.10
9668;DHT22;4872;48.316;10.650;2023-04-03T14:36:43;6.90;71.40
9668;DHT22;4872;48.316;10.650;2023-04-03T14:39:16;6.90;72.10
9668;DHT22;4872;48.316;10.650;2023-04-03T14:41:45;6.90;72.60
9668;DHT22;4872;48.316;10.650;2023-04-03T14:44:11;7.00;71.80
9668;DHT22;4872;48.316;10.650;2023-04-03T14:46:41;7.10;71.70
9668;DHT22;4872;48.316;10.650;2023-04-03T14:49:13;7.50;71.10
9668;DHT22;4872;48.316;10.650;2023-04-03T14:51:42;7.60;70.40
9668;DHT22;4872;48.316;10.650;2023-04-03T14:54:13;7.90;70.00
9668;DHT22;4872;48.316;10.650;2023-04-03T14:56:40;8.60;71.10
9668;DHT22;4872;48.316;10.650;2023-04-03T14:59:09;9.00;68.40
9668;DHT22;4872;48.316;10.650;2023-04-03T15:01:37;9.70;66.40
9668;DHT22;4872;48.316;10.650;2023-04-03T15:04:10;9.80;66.70
9668;DHT22;4872;48.316;10.650;2023-04-03T15:06:38;10.20;64.50
9668;DHT22;4872;48.316;10.650;2023-04-03T15:09:18;9.90;63.70
9668;DHT22;4872;48.316;10.650;2023-04-03T15:11:48;9.50;62.10
9668;DHT22;4872;48.316;10.650;2023-04-03T15:14:15;9.00;62.90
9668;DHT22;4872;48.316;10.650;2023-04-03T15:16:41;8.70;63.40
9668;DHT22;4872;48.316;10.650;2023-04-03T15:19:09;8.00;62.80
9668;DHT22;4872;48.316;10.650;2023-04-03T15:21:36;7.70;64.50
9668;DHT22;4872;48.316;10.650;2023-04-03T15:24:06;7.70;65.30
9668;DHT22;4872;48.316;10.650;2023-04-03T15:26:35;7.50;65.20
9668;DHT22;4872;48.316;10.650;2023-04-03T15:29:02;7.40;64.40
9668;DHT22;4872;48.316;10.650;2023-04-03T15:31:29;7.40;64.40
9668;DHT22;4872;48.316;10.650;2023-04-03T15:33:56;7.50;65.50
9668;DHT22;4872;48.316;10.650;2023-04-03T15:36:23;7.40;64.80
9668;DHT22;4872;48.316;10.650;2023-04-03T15:38:50;7.40;64.90
9668;DHT22;4872;48.316;10.650;2023-04-03T15:41:17;7.80;65.60
9668;DHT22;4872;48.316;10.650;2023-04-03T15:43:45;7.70;64.70
9668;DHT22;4872;48.316;10.650;2023-04-03T15:46:13;8.00;64.30
9668;DHT22;4872;48.316;10.650;2023-04-03T15:48:40;9.80;62.00
9668;DHT22;4872;48.316;10.650;2023-04-03T15:51:07;11.90;58.60
9668;DHT22;4872;48.316;10.650;2023-04-03T15:53:34;14.20;54.60
9668;DHT22;4872;48.316;10.650;2023-04-03T15:56:01;15.40;50.60
9668;DHT22;4872;48.316;10.650;2023-04-03T15:58:27;16.30;48.30
9668;DHT22;4872;48.316;10.650;2023-04-03T16:00:56;16.60;47.10
9668;DHT22;4872;48.316;10.650;2023-04-03T16:03:23;16.10;47.40
9668;DHT22;4872;48.316;10.650;2023-04-03T16:05:50;16.40;48.00
9668;DHT22;4872;48.316;10.650;2023-04-03T16:08:17;16.90;44.60
9668;DHT22;4872;48.316;10.650;2023-04-03T16:10:44;16.70;44.70
9668;DHT22;4872;48.316;10.650;2023-04-03T16:13:12;16.20;43.80
9668;DHT22;4872;48.316;10.650;2023-04-03T16:15:40;15.20;45.30
9668;DHT22;4872;48.316;10.650;2023-04-03T16:18:09;14.50;44.60
9668;DHT22;4872;48.316;10.650;2023-04-03T16:20:36;13.70;44.70
9668;DHT22;4872;48.316;10.650;2023-04-03T16:23:03;13.20;44.70
9668;DHT22;4872;48.316;10.650;2023-04-03T16:25:30;12.30;44.90
9668;DHT22;4872;48.316;10.650;2023-04-03T16:27:57;11.70;46.20
9668;DHT22;4872;48.316;10.650;2023-04-03T16:30:24;11.00;46.60
9668;DHT22;4872;48.316;10.650;2023-04-03T16:32:51;10.40;47.70
9668;DHT22;4872;48.316;10.650;2023-04-03T16:35:20;9.90;50.00
9668;DHT22;4872;48.316;10.650;2023-04-03T16:37:47;9.70;50.30
9668;DHT22;4872;48.316;10.650;2023-04-03T16:40:14;10.50;50.30
9668;DHT22;4872;48.316;10.650;2023-04-03T16:42:41;11.00;48.40
9668;DHT22;4872;48.316;10.650;2023-04-03T16:45:08;10.80;47.40
9668;DHT22;4872;48.316;10.650;2023-04-03T16:47:35;10.40;47.30
9668;DHT22;4872;48.316;10.650;2023-04-03T16:50:02;10.00;48.40
9668;DHT22;4872;48.316;10.650;2023-04-03T16:52:31;9.80;48.90
9668;DHT22;4872;48.316;10.650;2023-04-03T16:54:57;9.20;49.00
9668;DHT22;4872;48.316;10.650;2023-04-03T16:57:24;8.80;49.50
9668;DHT22;4872;48.316;10.650;2023-04-03T16:59:53;8.40;49.80
9668;DHT22;4872;48.316;10.650;2023-04-03T17:02:21;7.80;51.00
9668;DHT22;4872;48.316;10.650;2023-04-03T17:04:49;7.50;51.50
9668;DHT22;4872;48.316;10.650;2023-04-03T17:07:17;7.20;52.50
9668;DHT22;4872;48.316;10.650;2023-04-03T17:09:45;7.00;52.60
9668;DHT22;4872;48.316;10.650;2023-04-03T17:12:12;6.80;52.40
9668;DHT22;4872;48.316;10.650;2023-04-03T17:14:38;6.80;53.30
9668;DHT22;4872;48.316;10.650;2023-04-03T17:17:05;6.30;53.60
9668;DHT22;4872;48.316;10.650;2023-04-03T17:19:33;6.10;52.50
9668;DHT22;4872;48.316;10.650;2023-04-03T17:22:00;6.20;53.70
9668;DHT22;4872;48.316;10.650;2023-04-03T17:24:28;5.80;53.40
9668;DHT22;4872;48.316;10.650;2023-04-03T17:26:56;5.70;53.40
9668;DHT22;4872;48.316;10.650;2023-04-03T17:29:23;5.50;53.60
9668;DHT22;4872;48.316;10.650;2023-04-03T17:31:49;5.40;54.00
9668;DHT22;4872;48.316;10.650;2023-04-03T17:34:16;5.30;54.80
9668;DHT22;4872;48.316;10.650;2023-04-03T17:36:43;5.50;55.90
9668;DHT22;4872;48.316;10.650;2023-04-03T17:39:10;5.00;55.90
9668;DHT22;4872;48.316;10.650;2023-04-03T17:41:37;5.30;56.90
9668;DHT22;4872;48.316;10.650;2023-04-03T17:44:05;5.60;58.20
9668;DHT22;4872;48.316;10.650;2023-04-03T17:46:32;5.00;56.60
9668;DHT22;4872;48.316;10.650;2023-04-03T17:48:58;4.90;56.70
9668;DHT22;4872;48.316;10.650;2023-04-03T17:51:26;4.70;56.80
9668;DHT22;4872;48.316;10.650;2023-04-03T17:53:53;4.70;56.70
9668;DHT22;4872;48.316;10.650;2023-04-03T17:56:22;4.70;56.30
9668;DHT22;4872;48.316;10.650;2023-04-03T17:58:50;4.60;56.70
9668;DHT22;4872;48.316;10.650;2023-04-03T18:01:19;4.90;57.40
9668;DHT22;4872;48.316;10.650;2023-04-03T18:03:48;4.50;57.90
9668;DHT22;4872;48.316;10.650;2023-04-03T18:06:18;4.40;58.00
9668;DHT22;4872;48.316;10.650;2023-04-03T18:08:48;4.30;58.10
9668;DHT22;4872;48.316;10.650;2023-04-03T18:11:16;4.20;58.90
9668;DHT22;4872;48.316;10.650;2023-04-03T18:13:43;4.60;59.70
9668;DHT22;4872;48.316;10.650;2023-04-03T18:16:12;3.80;59.40
9668;DHT22;4872;48.316;10.650;2023-04-03T18:18:40;4.50;60.00
9668;DHT22;4872;48.316;10.650;2023-04-03T18:21:09;3.80;59.80
9668;DHT22;4872;48.316;10.650;2023-04-03T18:23:38;4.10;59.90
9668;DHT22;4872;48.316;10.650;2023-04-03T18:26:09;3.80;59.60
9668;DHT22;4872;48.316;10.650;2023-04-03T18:28:38;4.10;60.00
9668;DHT22;4872;48.316;10.650;2023-04-03T18:31:07;4.30;60.00
9668;DHT22;4872;48.316;10.650;2023-04-03T18:33:36;3.40;58.50
9668;DHT22;4872;48.316;10.650;2023-04-03T18:36:04;3.80;59.10
9668;DHT22;4872;48.316;10.650;2023-04-03T18:38:31;3.50;59.30
9668;DHT22;4872;48.316;10.650;2023-04-03T18:40:59;3.40;58.80
9668;DHT22;4872;48.316;10.650;2023-04-03T18:43:26;4.20;58.80
9668;DHT22;4872;48.316;10.650;2023-04-03T18:45:53;4.40;58.70
9668;DHT22;4872;48.316;10.650;2023-04-03T18:48:23;3.30;57.90
9668;DHT22;4872;48.316;10.650;2023-04-03T18:50:53;3.30;58.20
9668;DHT22;4872;48.316;10.650;2023-04-03T18:53:22;3.60;58.80
9668;DHT22;4872;48.316;10.650;2023-04-03T18:55:49;3.20;59.20
9668;DHT22;4872;48.316;10.650;2023-04-03T18:58:16;3.20;59.70
9668;DHT22;4872;48.316;10.650;2023-04-03T19:00:42;4.20;60.50
9668;DHT22;4872;48.316;10.650;2023-04-03T19:03:10;3.10;59.70
9668;DHT22;4872;48.316;10.650;2023-04-03T19:05:38;2.90;59.70
9668;DHT22;4872;48.316;10.650;2023-04-03T19:08:10;3.60;60.20
9668;DHT22;4872;48.316;10.650;2023-04-03T19:10:39;3.80;61.10
9668;DHT22;4872;48.316;10.650;2023-04-03T19:13:06;2.70;59.90
9668;DHT22;4872;48.316;10.650;2023-04-03T19:15:33;3.10;60.90
9668;DHT22;4872;48.316;10.650;2023-04-03T19:18:00;2.80;60.50
9668;DHT22;4872;48.316;10.650;2023-04-03T19:20:28;2.70;61.70
9668;DHT22;4872;48.316;10.650;2023-04-03T19:22:55;2.70;63.00
9668;DHT22;4872;48.316;10.650;2023-04-03T19:25:29;2.60;63.80
9668;DHT22;4872;48.316;10.650;2023-04-03T19:27:58;2.60;64.10
9668;DHT22;4872;48.316;10.650;2023-04-03T19:30:25;3.00;63.40
9668;DHT22;4872;48.316;10.650;2023-04-03T19:32:52;3.50;63.30
9668;DHT22;4872;48.316;10.650;2023-04-03T19:35:22;2.30;62.20
9668;DHT22;4872;48.316;10.650;2023-04-03T19:37:49;2.50;62.50
9668;DHT22;4872;48.316;10.650;2023-04-03T19:40:18;3.50;63.50
9668;DHT22;4872;48.316;10.650;2023-04-03T19:42:45;2.20;62.60
9668;DHT22;4872;48.316;10.650;2023-04-03T19:45:13;2.40;62.60
9668;DHT22;4872;48.316;10.650;2023-04-03T19:47:51;3.10;63.40
9668;DHT22;4872;48.316;10.650;2023-04-03T19:50:23;2.30;63.00
9668;DHT22;4872;48.316;10.650;2023-04-03T19:52:53;2.50;63.50
9668;DHT22;4872;48.316;10.650;2023-04-03T19:55:20;2.40;63.40
9668;DHT22;4872;48.316;10.650;2023-04-03T19:57:48;2.40;63.70
9668;DHT22;4872;48.316;10.650;2023-04-03T20:00:18;2.30;63.60
9668;DHT22;4872;48.316;10.650;2023-04-03T20:02:45;2.10;63.80
9668;DHT22;4872;48.316;10.650;2023-04-03T20:05:12;2.10;63.70
9668;DHT22;4872;48.316;10.650;2023-04-03T20:07:39;2.20;64.20
9668;DHT22;4872;48.316;10.650;2023-04-03T20:10:06;2.30;63.90
9668;DHT22;4872;48.316;10.650;2023-04-03T20:12:33;2.00;64.20
9668;DHT22;4872;48.316;10.650;2023-04-03T20:15:02;2.50;64.70
9668;DHT22;4872;48.316;10.650;2023-04-03T20:17:30;2.00;65.00
9668;DHT22;4872;48.316;10.650;2023-04-03T20:20:05;1.90;64.20
9668;DHT22;4872;48.316;10.650;2023-04-03T20:22:33;2.10;64.50
9668;DHT22;4872;48.316;10.650;2023-04-03T20:25:01;2.30;64.40
9668;DHT22;4872;48.316;10.650;2023-04-03T20:27:28;2.20;64.90
9668;DHT22;4872;48.316;10.650;2023-04-03T20:29:58;2.20;64.80
9668;DHT22;4872;48.316;10.650;2023-04-03T20:32:25;2.00;65.40
9668;DHT22;4872;48.316;10.650;2023-04-03T20:34:54;2.20;65.10
9668;DHT22;4872;48.316;10.650;2023-04-03T20:37:29;2.40;65.30
9668;DHT22;4872;48.316;10.650;2023-04-03T20:39:56;2.00;64.70
9668;DHT22;4872;48.316;10.650;2023-04-03T20:42:25;2.50;65.10
9668;DHT22;4872;48.316;10.650;2023-04-03T20:44:54;2.00;65.10
9668;DHT22;4872;48.316;10.650;2023-04-03T20:47:21;2.50;65.40
9668;DHT22;4872;48.316;10.650;2023-04-03T20:49:51;2.40;64.90
9668;DHT22;4872;48.316;10.650;2023-04-03T20:52:22;1.90;63.80
9668;DHT22;4872;48.316;10.650;2023-04-03T20:54:50;1.90;63.10
9668;DHT22;4872;48.316;10.650;2023-04-03T20:57:18;1.90;64.00
9668;DHT22;4872;48.316;10.650;2023-04-03T20:59:52;1.90;64.20
9668;DHT22;4872;48.316;10.650;2023-04-03T21:02:20;1.80;65.00
9668;DHT22;4872;48.316;10.650;2023-04-03T21:04:50;1.90;65.40
9668;DHT22;4872;48.316;10.650;2023-04-03T21:19:20;1.40;65.90
9668;DHT22;4872;48.316;10.650;2023-04-03T21:21:55;1.40;65.60
9668;DHT22;4872;48.316;10.650;2023-04-03T21:24:25;1.50;65.40
9668;DHT22;4872;48.316;10.650;2023-04-03T21:26:56;1.50;65.40
9668;DHT22;4872;48.316;10.650;2023-04-03T21:29:23;1.60;65.70
9668;DHT22;4872;48.316;10.650;2023-04-03T21:31:52;2.10;66.00
9668;DHT22;4872;48.316;10.650;2023-04-03T21:34:23;1.50;65.70
9668;DHT22;4872;48.316;10.650;2023-04-03T21:36:52;1.60;66.20
9668;DHT22;4872;48.316;10.650;2023-04-03T21:39:19;2.40;67.10
9668;DHT22;4872;48.316;10.650;2023-04-03T21:41:48;1.50;66.30
9668;DHT22;4872;48.316;10.650;2023-04-03T21:44:16;1.70;65.70
9668;DHT22;4872;48.316;10.650;2023-04-03T21:46:43;1.60;64.90
9668;DHT22;4872;48.316;10.650;2023-04-03T21:49:12;2.40;65.80
9668;DHT22;4872;48.316;10.650;2023-04-03T21:51:41;1.80;65.50
9668;DHT22;4872;48.316;10.650;2023-04-03T21:54:08;1.40;65.10